createdAt,value
2022-09-03T00:02:24.487Z,98.73
2022-09-03T00:05:30.298Z,97.98
2022-09-03T00:08:04.117Z,99.34
2022-09-03T00:10:47.206Z,99.41
2022-09-03T00:13:20.290Z,97.71
2022-09-03T00:15:49.514Z,97.41
2022-09-03T00:18:24.964Z,97.07
2022-09-03T00:20:59.636Z,98.24
2022-09-03T00:23:31.334Z,98.73
2022-09-03T00:26:10.602Z,97.90
2022-09-03T00:29:07.260Z,96.61
2022-09-03T00:31:39.576Z,97.22
2022-09-03T00:34:33.512Z,97.11
2022-09-03T00:37:00.697Z,96.05
2022-09-03T00:39:28.853Z,96.63
2022-09-03T00:42:23.667Z,96.62
2022-09-03T00:45:25.672Z,95.50
2022-09-03T00:48:11.640Z,96.38
2022-09-03T00:50:54.338Z,95.62
2022-09-03T00:53:33.610Z,96.00
2022-09-03T00:56:32.986Z,97.59
2022-09-03T00:59:36.125Z,94.81
2022-09-03T01:02:20.172Z,93.88
2022-09-03T01:05:10.576Z,96.73
2022-09-03T01:07:49.879Z,97.81
2022-09-03T01:10:26.198Z,99.20
2022-09-03T01:13:14.221Z,100.00
2022-09-03T01:16:23.567Z,100.00
2022-09-03T01:19:12.193Z,100.00
2022-09-03T01:22:05.319Z,100.00
2022-09-03T01:24:50.771Z,100.00
2022-09-03T01:27:36.980Z,100.00
2022-09-03T01:30:33.594Z,100.00
2022-09-03T01:33:13.211Z,100.00
2022-09-03T01:36:12.867Z,100.00
2022-09-03T01:38:56.370Z,100.00
2022-09-03T01:41:45.227Z,100.00
2022-09-03T01:44:18.462Z,100.00
2022-09-03T01:46:50.908Z,100.00
2022-09-03T01:49:43.532Z,100.00
2022-09-03T01:52:37.798Z,100.00
2022-09-03T01:55:26.519Z,100.00
2022-09-03T01:58:02.753Z,100.00
2022-09-03T02:00:33.455Z,100.00
2022-09-03T02:03:05.951Z,100.00
2022-09-03T02:05:35.279Z,100.00
2022-09-03T02:08:06.971Z,100.00
2022-09-03T02:10:42.912Z,100.00
2022-09-03T02:13:12.019Z,100.00
2022-09-03T02:15:44.721Z,100.00
2022-09-03T02:18:18.784Z,100.00
2022-09-03T02:20:48.162Z,100.00
2022-09-03T02:23:17.015Z,100.00
2022-09-03T02:25:52.989Z,100.00
2022-09-03T02:28:20.473Z,100.00
2022-09-03T02:30:48.416Z,100.00
2022-09-03T02:33:16.588Z,100.00
2022-09-03T02:35:44.177Z,100.00
2022-09-03T02:38:20.306Z,100.00
2022-09-03T02:40:48.241Z,100.00
2022-09-03T02:43:22.328Z,100.00
2022-09-03T02:45:59.966Z,100.00
2022-09-03T02:48:27.510Z,100.00
2022-09-03T02:50:55.133Z,100.00
2022-09-03T02:53:22.592Z,100.00
2022-09-03T02:55:49.825Z,100.00
2022-09-03T02:58:17.272Z,100.00
2022-09-03T03:00:45.081Z,100.00
2022-09-03T03:03:12.285Z,100.00
2022-09-03T03:05:46.863Z,100.00
2022-09-03T03:08:17.876Z,100.00
2022-09-03T03:10:45.378Z,100.00
2022-09-03T03:13:13.224Z,100.00
2022-09-03T03:15:41.238Z,100.00
2022-09-03T03:18:12.055Z,100.00
2022-09-03T03:20:39.738Z,100.00
2022-09-03T03:23:07.470Z,100.00
2022-09-03T03:25:36.799Z,100.00
2022-09-03T03:28:05.449Z,100.00
2022-09-03T03:30:33.758Z,100.00
2022-09-03T03:33:01.616Z,100.00
2022-09-03T03:35:28.896Z,100.00
2022-09-03T03:37:58.710Z,100.00
2022-09-03T03:40:26.540Z,100.00
2022-09-03T03:42:53.875Z,100.00
2022-09-03T03:45:21.161Z,100.00
2022-09-03T03:47:48.720Z,100.00
2022-09-03T03:50:17.004Z,100.00
2022-09-03T03:52:44.261Z,100.00
2022-09-03T03:55:11.975Z,100.00
2022-09-03T03:57:43.221Z,100.00
2022-09-03T04:00:14.028Z,100.00
2022-09-03T04:02:44.236Z,100.00
2022-09-03T04:05:11.637Z,100.00
2022-09-03T04:07:39.145Z,100.00
2022-09-03T04:10:07.098Z,100.00
2022-09-03T04:12:34.366Z,100.00
2022-09-03T04:15:02.508Z,100.00
2022-09-03T04:17:29.676Z,100.00
2022-09-03T04:19:56.996Z,100.00
2022-09-03T04:22:24.478Z,100.00
2022-09-03T04:24:51.641Z,100.00
2022-09-03T04:27:18.872Z,100.00
2022-09-03T04:29:46.360Z,100.00
2022-09-03T04:32:32.254Z,100.00
2022-09-03T04:34:59.759Z,100.00
2022-09-03T04:37:27.044Z,100.00
2022-09-03T04:39:54.473Z,100.00
2022-09-03T04:42:22.132Z,100.00
2022-09-03T04:44:49.435Z,100.00
2022-09-03T04:47:16.731Z,100.00
2022-09-03T04:49:44.169Z,100.00
2022-09-03T04:52:12.139Z,100.00
2022-09-03T04:54:39.383Z,100.00
2022-09-03T04:57:06.823Z,100.00
2022-09-03T04:59:34.117Z,100.00
2022-09-03T05:02:01.406Z,100.00
2022-09-03T05:04:28.845Z,100.00
2022-09-03T05:06:56.249Z,100.00
2022-09-03T05:09:23.534Z,100.00
2022-09-03T05:11:50.934Z,100.00
2022-09-03T05:14:18.107Z,100.00
2022-09-03T05:16:53.226Z,100.00
2022-09-03T05:19:20.838Z,100.00
2022-09-03T05:21:48.237Z,100.00
2022-09-03T05:24:15.413Z,100.00
2022-09-03T05:26:42.882Z,100.00
2022-09-03T05:29:10.127Z,100.00
2022-09-03T05:31:39.616Z,100.00
2022-09-03T05:34:08.055Z,100.00
2022-09-03T05:36:37.424Z,100.00
2022-09-03T05:39:05.942Z,100.00
2022-09-03T05:41:34.473Z,100.00
2022-09-03T05:44:03.901Z,100.00
2022-09-03T05:46:33.477Z,100.00
2022-09-03T05:49:03.334Z,100.00
2022-09-03T05:51:31.636Z,100.00
2022-09-03T05:53:59.272Z,100.00
2022-09-03T05:56:28.985Z,100.00
2022-09-03T05:59:01.980Z,100.00
2022-09-03T06:01:38.175Z,98.56
2022-09-03T06:04:08.647Z,70.43
2022-09-03T06:06:38.626Z,56.17
2022-09-03T06:09:09.166Z,52.10
2022-09-03T06:11:38.402Z,60.75
2022-09-03T06:14:11.933Z,54.43
2022-09-03T06:16:41.704Z,65.27
2022-09-03T06:19:11.054Z,57.15
2022-09-03T06:21:45.745Z,61.49
2022-09-03T06:24:28.285Z,55.02
2022-09-03T06:26:57.291Z,51.96
2022-09-03T06:29:25.410Z,44.97
2022-09-03T06:31:52.700Z,48.85
2022-09-03T06:34:22.672Z,40.57
2022-09-03T06:36:54.708Z,37.97
2022-09-03T06:39:22.407Z,30.27
2022-09-03T06:41:52.135Z,30.83
2022-09-03T06:44:26.676Z,38.74
2022-09-03T06:46:53.931Z,34.48
2022-09-03T06:49:21.429Z,30.65
2022-09-03T06:51:48.943Z,28.07
2022-09-03T06:54:16.383Z,27.91
2022-09-03T06:56:43.567Z,28.59
2022-09-03T06:59:12.960Z,26.34
2022-09-03T07:01:44.108Z,29.59
2022-09-03T07:04:16.271Z,28.29
2022-09-03T07:06:44.493Z,28.14
2022-09-03T07:09:13.291Z,27.53
2022-09-03T07:11:47.453Z,34.41
2022-09-03T07:14:17.361Z,29.71
2022-09-03T07:16:46.174Z,33.22
2022-09-03T07:19:13.735Z,35.64
2022-09-03T07:21:46.779Z,40.93
2022-09-03T07:24:18.346Z,39.35
2022-09-03T07:26:47.155Z,44.73
2022-09-03T07:29:16.110Z,56.91
2022-09-03T07:31:44.348Z,54.44
2022-09-03T07:34:13.991Z,56.18
2022-09-03T07:36:48.810Z,52.05
2022-09-03T07:39:18.212Z,54.60
2022-09-03T07:41:47.105Z,57.83
2022-09-03T07:44:16.310Z,56.40
2022-09-03T07:46:45.636Z,57.30
2022-09-03T07:49:13.311Z,61.27
2022-09-03T07:51:40.670Z,60.50
2022-09-03T07:54:11.208Z,59.14
2022-09-03T07:56:41.230Z,62.77
2022-09-03T07:59:09.417Z,61.20
2022-09-03T08:01:38.452Z,70.24
2022-09-03T08:04:09.462Z,68.59
2022-09-03T08:06:38.479Z,62.58
2022-09-03T08:09:09.101Z,61.84
2022-09-03T08:11:38.515Z,60.97
2022-09-03T08:14:08.830Z,57.80
2022-09-03T08:16:44.612Z,59.37
2022-09-03T08:19:13.565Z,51.57
2022-09-03T08:21:42.275Z,45.36
2022-09-03T08:24:14.890Z,44.22
2022-09-03T08:26:46.251Z,45.63
2022-09-03T08:29:18.301Z,46.94
2022-09-03T08:31:45.975Z,52.35
2022-09-03T08:34:14.922Z,51.69
2022-09-03T08:36:42.589Z,52.61
2022-09-03T08:39:11.594Z,49.27
2022-09-03T08:41:53.726Z,44.82
2022-09-03T08:44:57.120Z,41.27
2022-09-03T08:47:37.780Z,36.62
2022-09-03T08:50:22.513Z,37.12
2022-09-03T08:53:16.586Z,36.48
2022-09-03T08:55:59.872Z,37.62
2022-09-03T08:58:30.809Z,38.03
2022-09-03T09:01:02.385Z,38.17
2022-09-03T09:03:49.768Z,35.63
2022-09-03T09:06:49.332Z,36.96
2022-09-03T09:09:38.206Z,38.83
2022-09-03T09:12:25.476Z,39.17
2022-09-03T09:15:37.056Z,36.99
2022-09-03T09:18:57.833Z,34.51
2022-09-03T09:21:39.535Z,37.85
2022-09-03T09:24:21.998Z,38.45
2022-09-03T09:26:54.990Z,40.20
2022-09-03T09:29:22.414Z,37.62
2022-09-03T09:31:50.895Z,36.01
2022-09-03T09:34:18.106Z,35.28
2022-09-03T09:36:52.222Z,36.37
2022-09-03T09:39:20.029Z,36.40
2022-09-03T09:42:08.382Z,37.74
2022-09-03T09:44:41.156Z,38.68
2022-09-03T09:47:16.345Z,38.85
2022-09-03T09:49:46.945Z,38.20
2022-09-03T09:52:16.532Z,39.15
2022-09-03T09:54:48.481Z,39.77
2022-09-03T09:57:24.285Z,38.25
2022-09-03T10:00:13.437Z,39.06
2022-09-03T10:02:50.230Z,38.77
2022-09-03T10:05:25.998Z,38.73
2022-09-03T10:08:01.808Z,38.13
2022-09-03T10:10:33.864Z,39.24
2022-09-03T10:13:18.730Z,37.57
2022-09-03T10:15:55.933Z,34.67
2022-09-03T10:18:40.962Z,36.79
2022-09-03T10:21:23.994Z,38.02
2022-09-03T10:24:10.374Z,39.70
2022-09-03T10:26:37.702Z,39.63
2022-09-03T10:29:07.705Z,41.14
2022-09-03T10:32:04.037Z,40.11
2022-09-03T10:34:35.173Z,40.63
2022-09-03T10:37:33.245Z,39.48
2022-09-03T10:40:13.192Z,37.50
2022-09-03T10:42:45.945Z,38.43
2022-09-03T10:45:48.574Z,39.80
2022-09-03T10:48:39.239Z,41.65
2022-09-03T10:51:27.931Z,40.58
2022-09-03T10:54:20.891Z,43.75
2022-09-03T10:57:07.179Z,44.33
2022-09-03T11:00:06.849Z,42.20
2022-09-03T11:02:41.347Z,40.99
2022-09-03T11:05:16.400Z,40.45
2022-09-03T11:07:53.297Z,39.65
2022-09-03T11:10:41.112Z,41.45
2022-09-03T11:13:31.473Z,45.67
2022-09-03T11:16:32.594Z,45.75
2022-09-03T11:19:07.284Z,48.31
2022-09-03T11:21:36.790Z,50.27
2022-09-03T11:24:34.129Z,50.30
2022-09-03T11:27:28.802Z,51.75
2022-09-03T11:30:07.605Z,51.79
2022-09-03T11:32:41.517Z,52.87
2022-09-03T11:35:24.318Z,51.77
2022-09-03T11:38:04.101Z,55.07
2022-09-03T11:40:40.273Z,53.18
2022-09-03T11:43:15.754Z,52.78
2022-09-03T11:45:43.350Z,53.94
2022-09-03T11:48:38.253Z,55.18
2022-09-03T11:51:18.617Z,53.19
2022-09-03T11:53:57.393Z,55.05
2022-09-03T11:56:25.891Z,54.42
2022-09-03T11:59:23.707Z,56.40
2022-09-03T12:01:59.271Z,55.20
2022-09-03T12:04:34.627Z,53.92
2022-09-03T12:07:20.845Z,53.62
2022-09-03T12:10:15.519Z,53.90
2022-09-03T12:13:03.696Z,53.80
2022-09-03T12:15:55.436Z,53.12
2022-09-03T12:18:24.644Z,52.71
2022-09-03T12:21:00.753Z,51.82
2022-09-03T12:23:34.125Z,52.44
2022-09-03T12:26:06.287Z,52.66
2022-09-03T12:28:37.870Z,53.63
2022-09-03T12:31:21.297Z,51.50
2022-09-03T12:33:54.254Z,52.76
2022-09-03T12:36:23.216Z,52.63
2022-09-03T12:39:10.850Z,53.35
2022-09-03T12:41:38.370Z,55.19
2022-09-03T12:44:06.473Z,53.08
2022-09-03T12:46:34.668Z,50.65
2022-09-03T12:52:08.844Z,50.64
2022-09-03T12:54:43.995Z,51.56
2022-09-03T12:57:23.377Z,52.98
2022-09-03T12:59:54.328Z,51.29
2022-09-03T13:02:28.805Z,51.47
2022-09-03T13:04:56.694Z,50.86
2022-09-03T13:07:29.702Z,52.76
2022-09-03T13:10:04.327Z,52.45
2022-09-03T13:12:51.141Z,50.72
2022-09-03T13:15:23.880Z,50.16
2022-09-03T13:18:17.056Z,51.65
2022-09-03T13:21:07.149Z,52.56
2022-09-03T13:23:49.537Z,50.71
2022-09-03T13:26:40.912Z,49.73
2022-09-03T13:29:18.698Z,51.04
2022-09-03T13:32:27.385Z,51.67
2022-09-03T13:35:26.418Z,52.58
2022-09-03T13:38:22.909Z,52.32
2022-09-03T13:41:04.897Z,53.90
2022-09-03T13:43:44.967Z,55.59
2022-09-03T13:46:46.614Z,55.38
2022-09-03T13:50:02.291Z,55.53
2022-09-03T13:53:01.688Z,58.05
2022-09-03T13:55:31.689Z,60.50
2022-09-03T13:58:02.197Z,61.88
2022-09-03T14:00:38.574Z,61.30
2022-09-03T14:03:30.609Z,61.63
2022-09-03T14:06:26.167Z,62.48
2022-09-03T14:08:58.687Z,62.75
2022-09-03T14:12:01.695Z,62.43
2022-09-03T14:14:37.011Z,61.54
2022-09-03T14:17:26.944Z,61.64
2022-09-03T14:20:07.219Z,61.08
2022-09-03T14:22:56.719Z,60.87
2022-09-03T14:25:26.866Z,64.04
2022-09-03T14:27:56.206Z,64.21
2022-09-03T14:30:48.502Z,63.51
2022-09-03T14:33:44.354Z,65.21
2022-09-03T14:36:17.537Z,66.94
2022-09-03T14:39:13.227Z,63.88
2022-09-03T14:42:13.508Z,62.69
2022-09-03T14:45:12.686Z,63.44
2022-09-03T14:47:58.906Z,63.16
2022-09-03T14:50:56.609Z,62.59
2022-09-03T14:53:37.821Z,62.99
2022-09-03T14:56:13.380Z,62.54
2022-09-03T14:59:20.698Z,64.15
2022-09-03T15:02:13.511Z,65.35
2022-09-03T15:05:12.258Z,61.68
2022-09-03T15:07:51.684Z,63.42
2022-09-03T15:10:33.098Z,60.77
2022-09-03T15:13:26.313Z,62.10
2022-09-03T15:16:06.765Z,64.02
2022-09-03T15:19:18.929Z,62.40
2022-09-03T15:22:23.406Z,59.87
2022-09-03T15:25:12.589Z,60.36
2022-09-03T15:28:05.600Z,60.14
2022-09-03T15:31:14.554Z,59.82
2022-09-03T15:34:20.258Z,62.01
2022-09-03T15:36:53.859Z,64.09
2022-09-03T15:39:24.379Z,63.85
2022-09-03T15:41:53.703Z,64.34
2022-09-03T15:44:21.275Z,64.99
2022-09-03T15:47:14.456Z,65.62
2022-09-03T15:50:08.357Z,64.62
2022-09-03T15:52:58.329Z,64.99
2022-09-03T15:55:40.820Z,65.46
2022-09-03T15:58:29.355Z,65.92
2022-09-03T16:01:03.179Z,66.06
2022-09-03T16:03:46.900Z,65.48
2022-09-03T16:06:49.874Z,66.62
2022-09-03T16:09:33.627Z,65.69
2022-09-03T16:12:38.005Z,66.63
2022-09-03T16:15:26.267Z,65.55
2022-09-03T16:18:10.150Z,66.68
2022-09-03T16:20:49.731Z,67.50
2022-09-03T16:23:23.882Z,67.73
2022-09-03T16:26:14.353Z,68.73
2022-09-03T16:28:52.674Z,68.53
2022-09-03T16:32:09.203Z,68.06
2022-09-03T16:34:45.783Z,68.84
2022-09-03T16:37:19.899Z,68.55
2022-09-03T16:39:57.936Z,68.88
2022-09-03T16:42:47.668Z,68.26
2022-09-03T16:45:51.324Z,68.65
2022-09-03T16:48:33.594Z,68.99
2022-09-03T16:51:08.327Z,70.22
2022-09-03T16:54:20.690Z,69.96
2022-09-03T16:56:54.168Z,70.31
2022-09-03T16:59:39.654Z,69.54
2022-09-03T17:02:42.044Z,68.61
2022-09-03T17:05:37.497Z,69.28
2022-09-03T17:08:20.391Z,69.51
2022-09-03T17:10:59.483Z,69.66
2022-09-03T17:14:16.479Z,69.86
2022-09-03T17:17:05.891Z,69.15
2022-09-03T17:19:39.286Z,69.26
2022-09-03T17:22:26.699Z,69.65
2022-09-03T17:25:07.147Z,69.66
2022-09-03T17:27:49.724Z,68.88
2022-09-03T17:30:40.817Z,69.65
2022-09-03T17:33:37.835Z,70.88
2022-09-03T17:36:12.404Z,70.26
2022-09-03T17:39:07.000Z,69.98
2022-09-03T17:41:48.292Z,69.90
2022-09-03T17:44:43.076Z,70.55
2022-09-03T17:47:34.338Z,70.61
2022-09-03T17:50:33.197Z,71.32
2022-09-03T17:53:10.313Z,70.04
2022-09-03T17:56:00.372Z,71.60
2022-09-03T17:58:49.505Z,70.39
2022-09-03T18:01:29.123Z,71.26
2022-09-03T18:04:13.909Z,71.82
2022-09-03T18:06:41.134Z,70.56
2022-09-03T18:09:18.559Z,70.34
2022-09-03T18:12:05.485Z,70.60
2022-09-03T18:14:56.737Z,70.73
2022-09-03T18:17:45.899Z,70.66
2022-09-03T18:20:33.854Z,71.64
2022-09-03T18:23:28.715Z,70.03
2022-09-03T18:26:25.947Z,70.89
2022-09-03T18:29:22.274Z,70.87
2022-09-03T18:32:08.506Z,71.16
2022-09-03T18:34:55.403Z,70.49
2022-09-03T18:37:44.347Z,70.85
2022-09-03T18:40:40.783Z,70.22
2022-09-03T18:43:47.688Z,70.68
2022-09-03T18:50:29.899Z,70.85
2022-09-03T18:53:18.639Z,71.58
2022-09-03T18:56:28.175Z,71.48
2022-09-03T18:59:25.844Z,71.45
2022-09-03T19:02:12.582Z,72.59
2022-09-03T19:04:58.577Z,72.17
2022-09-03T19:08:05.725Z,71.81
2022-09-03T19:11:30.857Z,72.14
2022-09-03T19:14:26.027Z,71.36
2022-09-03T19:17:39.105Z,72.07
2022-09-03T19:20:47.135Z,72.84
2022-09-03T19:23:33.601Z,73.37
2022-09-03T19:26:44.417Z,72.42
2022-09-03T19:29:55.888Z,73.80
2022-09-03T19:32:59.345Z,73.81
2022-09-03T19:35:59.849Z,73.82
2022-09-03T19:39:16.194Z,74.15
2022-09-03T19:42:15.338Z,75.17
2022-09-03T19:45:21.947Z,75.75
2022-09-03T19:48:22.599Z,75.96
2022-09-03T19:51:23.284Z,76.03
2022-09-03T19:54:10.307Z,76.66
2022-09-03T19:56:57.463Z,76.84
2022-09-03T19:59:47.386Z,78.34
2022-09-03T20:02:33.692Z,77.82
2022-09-03T20:05:21.016Z,79.17
2022-09-03T20:08:11.875Z,79.27
2022-09-03T20:10:41.910Z,80.27
2022-09-03T20:13:15.782Z,81.38
2022-09-03T20:16:22.050Z,82.02
2022-09-03T20:19:23.736Z,82.46
2022-09-03T20:22:12.973Z,82.39
2022-09-03T20:25:28.245Z,83.74
2022-09-03T20:28:46.204Z,85.31
2022-09-03T20:31:47.593Z,85.70
2022-09-03T20:35:04.217Z,86.13
2022-09-03T20:37:41.586Z,87.03
2022-09-03T20:40:16.838Z,87.36
2022-09-03T20:43:21.539Z,86.50
2022-09-03T20:46:06.849Z,86.88
2022-09-03T20:48:53.046Z,86.80
2022-09-03T20:51:28.215Z,86.63
2022-09-03T20:54:06.396Z,85.59
2022-09-03T20:56:48.135Z,86.90
2022-09-03T20:59:26.314Z,87.58
2022-09-03T21:02:00.568Z,89.55
2022-09-03T21:04:46.144Z,91.25
2022-09-03T21:07:40.203Z,90.59
2022-09-03T21:10:50.818Z,91.22
2022-09-03T21:13:38.480Z,93.83
2022-09-03T21:16:37.347Z,98.99
2022-09-03T21:19:35.584Z,98.78
2022-09-03T21:22:23.224Z,100.00
2022-09-03T21:24:58.923Z,100.00
2022-09-03T21:27:34.316Z,100.00
2022-09-03T21:30:10.264Z,100.00
2022-09-03T21:32:55.795Z,100.00
2022-09-03T21:35:28.519Z,100.00
2022-09-03T21:38:05.078Z,100.00
2022-09-03T21:40:34.978Z,100.00
2022-09-03T21:43:27.502Z,100.00
2022-09-03T21:46:06.627Z,100.00
2022-09-03T21:48:47.732Z,100.00
2022-09-03T21:51:36.066Z,100.00
2022-09-03T21:54:13.730Z,100.00
2022-09-03T21:56:43.759Z,100.00
2022-09-03T21:59:36.242Z,100.00
2022-09-03T22:02:11.684Z,100.00
2022-09-03T22:04:39.126Z,100.00
2022-09-03T22:07:06.311Z,100.00
2022-09-03T22:09:39.935Z,100.00
2022-09-03T22:12:12.456Z,100.00
2022-09-03T22:14:49.908Z,100.00
2022-09-03T22:17:51.003Z,100.00
2022-09-03T22:20:19.147Z,100.00
2022-09-03T22:22:57.819Z,100.00
2022-09-03T22:25:51.268Z,100.00
2022-09-03T22:28:26.094Z,100.00
2022-09-03T22:31:04.010Z,100.00
2022-09-03T22:33:47.592Z,100.00
2022-09-03T22:36:21.673Z,100.00
2022-09-03T22:39:07.159Z,100.00
2022-09-03T22:41:43.436Z,100.00
2022-09-03T22:44:56.208Z,100.00
2022-09-03T22:47:29.410Z,100.00
2022-09-03T22:50:01.084Z,100.00
2022-09-03T22:52:31.355Z,100.00
2022-09-03T22:55:23.449Z,100.00
2022-09-03T22:58:06.642Z,100.00
2022-09-03T23:00:48.871Z,100.00
2022-09-03T23:03:22.735Z,100.00
2022-09-03T23:06:17.425Z,100.00
2022-09-03T23:08:53.997Z,100.00
2022-09-03T23:11:27.247Z,100.00
2022-09-03T23:14:06.263Z,100.00
2022-09-03T23:16:52.703Z,100.00
2022-09-03T23:19:33.484Z,100.00
2022-09-03T23:22:05.334Z,100.00
2022-09-03T23:24:40.025Z,100.00
2022-09-03T23:27:11.049Z,99.45
2022-09-03T23:29:50.430Z,98.98
2022-09-03T23:32:17.701Z,98.78
2022-09-03T23:34:45.203Z,96.79
2022-09-03T23:37:35.961Z,96.05
2022-09-03T23:40:15.413Z,96.03
2022-09-03T23:43:19.943Z,96.84
2022-09-03T23:46:20.931Z,94.91
2022-09-03T23:49:18.831Z,95.04
2022-09-03T23:52:10.421Z,96.02
2022-09-03T23:54:48.182Z,95.43
2022-09-03T23:57:18.301Z,96.18
2022-09-03T23:59:54.893Z,96.56
